Time;durP1;ratioP1;P1;durP2;ratioP2;P2;SDS_P1;SDS_P2;PMS_P1;PMS_P2;Temp;Humidity;BMP_temperature;BMP_pressure;BME280_temperature;BME280_humidity;BME280_pressure;Samples;Min_cycle;Max_cycle;Signal;HPM_P1;HPM_P2
2021/10/28 00:14:32;;;;;;;16.77;9.27;;;;;;;;;;5006450;28;20057;-72
2021/10/28 00:17:00;;;;;;;14.70;8.70;;;;;;;;;;5007817;28;20105;-72
2021/10/28 00:19:29;;;;;;;15.15;8.55;;;;;;;;;;5006246;28;20022;-72
2021/10/28 00:21:56;;;;;;;15.10;8.00;;;;;;;;;;5007758;28;20021;-72
2021/10/28 00:24:22;;;;;;;15.63;7.95;;;;;;;;;;5007168;28;20215;-72
2021/10/28 00:26:49;;;;;;;14.70;8.07;;;;;;;;;;5006492;28;20125;-72
2021/10/28 00:29:16;;;;;;;12.35;7.38;;;;;;;;;;5007472;28;20062;-72
2021/10/28 00:31:43;;;;;;;14.68;7.20;;;;;;;;;;5006430;28;20041;-72
2021/10/28 00:34:10;;;;;;;14.23;7.05;;;;;;;;;;5007640;28;20114;-72
2021/10/28 00:36:36;;;;;;;14.27;7.95;;;;;;;;;;5006111;28;20030;-72
2021/10/28 00:39:03;;;;;;;13.25;7.32;;;;;;;;;;5010946;28;20108;-72
2021/10/28 00:41:29;;;;;;;13.80;6.70;;;;;;;;;;5009535;28;20160;-72
2021/10/28 00:43:57;;;;;;;10.77;5.95;;;;;;;;;;5007940;28;20099;-72
2021/10/28 00:46:24;;;;;;;10.32;5.50;;;;;;;;;;5010402;28;20134;-72
2021/10/28 00:48:50;;;;;;;10.25;6.25;;;;;;;;;;4998291;28;20033;-72
2021/10/28 00:51:19;;;;;;;11.82;5.95;;;;;;;;;;5005706;28;20076;-72
2021/10/28 00:53:45;;;;;;;11.23;6.18;;;;;;;;;;5007060;28;20033;-72
2021/10/28 00:56:12;;;;;;;12.25;5.85;;;;;;;;;;5011480;28;20044;-72
2021/10/28 00:58:38;;;;;;;14.77;6.82;;;;;;;;;;5008885;28;20046;-72
2021/10/28 01:01:05;;;;;;;18.95;6.70;;;;;;;;;;5009124;28;20045;-72
2021/10/28 01:03:33;;;;;;;12.85;6.03;;;;;;;;;;5009773;28;20042;-72
2021/10/28 01:05:59;;;;;;;12.57;6.25;;;;;;;;;;5005978;28;20618;-72
2021/10/28 01:08:26;;;;;;;10.75;5.00;;;;;;;;;;5006411;28;20042;-72
2021/10/28 01:10:52;;;;;;;12.00;4.68;;;;;;;;;;5006889;28;20045;-72
2021/10/28 01:13:19;;;;;;;12.70;4.95;;;;;;;;;;5007000;28;20033;-72
2021/10/28 01:15:46;;;;;;;10.20;4.75;;;;;;;;;;5006941;28;20395;-72
2021/10/28 01:18:13;;;;;;;8.07;3.80;;;;;;;;;;5006366;28;20037;-72
2021/10/28 01:20:40;;;;;;;8.77;4.30;;;;;;;;;;5006944;28;20034;-72
2021/10/28 01:23:06;;;;;;;10.43;3.88;;;;;;;;;;5006306;28;20495;-72
2021/10/28 01:25:32;;;;;;;9.00;4.63;;;;;;;;;;5007343;28;20196;-72
2021/10/28 01:27:59;;;;;;;12.80;6.13;;;;;;;;;;5006041;28;20038;-72
2021/10/28 01:30:25;;;;;;;13.20;5.47;;;;;;;;;;5006935;28;20038;-72
2021/10/28 01:32:51;;;;;;;10.45;5.45;;;;;;;;;;5009121;28;20033;-72
2021/10/28 01:35:18;;;;;;;10.82;5.15;;;;;;;;;;5006818;28;20029;-72
2021/10/28 01:37:46;;;;;;;14.07;6.43;;;;;;;;;;5006209;28;20029;-71
2021/10/28 01:40:12;;;;;;;13.88;6.00;;;;;;;;;;5006930;28;20580;-72
2021/10/28 01:42:39;;;;;;;11.93;6.55;;;;;;;;;;5006592;28;20128;-72
2021/10/28 01:45:06;;;;;;;12.82;5.40;;;;;;;;;;5008203;28;20041;-72
2021/10/28 01:47:32;;;;;;;13.00;6.28;;;;;;;;;;5006183;28;20723;-72
2021/10/28 01:49:59;;;;;;;10.93;5.95;;;;;;;;;;5006445;28;20609;-72
2021/10/28 01:52:25;;;;;;;12.32;5.65;;;;;;;;;;5006354;28;20060;-72
2021/10/28 01:54:51;;;;;;;10.60;5.22;;;;;;;;;;5005834;28;20030;-72
2021/10/28 01:57:18;;;;;;;10.40;5.40;;;;;;;;;;5006395;28;20029;-72
2021/10/28 01:59:44;;;;;;;10.50;5.30;;;;;;;;;;5006100;28;20084;-72
2021/10/28 02:02:10;;;;;;;10.60;4.80;;;;;;;;;;5010385;28;20561;-72
2021/10/28 02:04:36;;;;;;;9.00;4.85;;;;;;;;;;5009019;28;20046;-72
2021/10/28 02:07:04;;;;;;;10.80;5.53;;;;;;;;;;5009798;28;20069;-72
2021/10/28 02:09:30;;;;;;;11.93;5.18;;;;;;;;;;5008874;28;20111;-72
2021/10/28 02:11:56;;;;;;;10.75;5.20;;;;;;;;;;5010241;28;20022;-72
2021/10/28 02:14:22;;;;;;;11.43;5.82;;;;;;;;;;5008588;28;20091;-72
2021/10/28 02:16:48;;;;;;;9.57;5.30;;;;;;;;;;5010168;28;20409;-72
2021/10/28 02:19:14;;;;;;;10.32;4.97;;;;;;;;;;5008814;28;20038;-72
2021/10/28 02:21:40;;;;;;;8.70;4.55;;;;;;;;;;5010174;28;20037;-72
2021/10/28 02:24:06;;;;;;;11.32;5.13;;;;;;;;;;5008922;28;20038;-72
2021/10/28 02:26:33;;;;;;;13.60;5.22;;;;;;;;;;5009953;28;20041;-72
2021/10/28 02:28:59;;;;;;;13.88;6.53;;;;;;;;;;5009451;28;20125;-72
2021/10/28 02:31:26;;;;;;;11.95;6.10;;;;;;;;;;5009177;28;20034;-72
2021/10/28 02:33:52;;;;;;;13.68;6.30;;;;;;;;;;5009711;28;20426;-72
2021/10/28 02:36:18;;;;;;;15.50;6.90;;;;;;;;;;5010240;28;20757;-72
2021/10/28 02:38:44;;;;;;;13.13;5.47;;;;;;;;;;5009777;28;20726;-72
2021/10/28 02:41:10;;;;;;;12.18;5.93;;;;;;;;;;5008763;28;20627;-72
2021/10/28 02:43:36;;;;;;;10.82;5.40;;;;;;;;;;5009518;28;20117;-72
2021/10/28 02:46:03;;;;;;;14.73;6.80;;;;;;;;;;5008491;28;20377;-72
2021/10/28 02:48:29;;;;;;;14.75;7.38;;;;;;;;;;5009000;28;20044;-72
2021/10/28 02:50:55;;;;;;;12.15;6.03;;;;;;;;;;5008348;28;20037;-72
2021/10/28 02:53:21;;;;;;;14.15;7.13;;;;;;;;;;5009642;28;20108;-72
2021/10/28 02:55:47;;;;;;;15.18;6.95;;;;;;;;;;5008412;28;20460;-72
2021/10/28 02:58:14;;;;;;;13.35;5.57;;;;;;;;;;5009267;28;20050;-72
2021/10/28 03:00:40;;;;;;;12.45;5.78;;;;;;;;;;5008267;28;20040;-72
2021/10/28 03:03:06;;;;;;;11.10;6.47;;;;;;;;;;5009449;28;20033;-72
2021/10/28 03:05:32;;;;;;;12.90;5.95;;;;;;;;;;5007957;28;20046;-72
2021/10/28 03:07:58;;;;;;;14.45;5.90;;;;;;;;;;5009659;28;20038;-72
2021/10/28 03:10:24;;;;;;;7.28;4.03;;;;;;;;;;5008572;28;20432;-72
2021/10/28 03:12:53;;;;;;;11.20;5.22;;;;;;;;;;5006523;28;20030;-72
2021/10/28 03:15:19;;;;;;;10.48;5.20;;;;;;;;;;5008116;28;20113;-72
2021/10/28 03:25:59;;;;;;;11.52;5.38;;;;;;;;;;5001685;28;20044;-72
2021/10/28 03:28:26;;;;;;;12.30;5.38;;;;;;;;;;5007907;28;20044;-72
2021/10/28 03:30:52;;;;;;;12.98;4.80;;;;;;;;;;5008655;28;20341;-72
2021/10/28 03:33:23;;;;;;;10.18;3.92;;;;;;;;;;5008687;28;20030;-72
2021/10/28 03:35:49;;;;;;;9.30;3.92;;;;;;;;;;5008417;28;20054;-72
2021/10/28 03:47:13;;;;;;;8.25;4.57;;;;;;;;;;4979792;28;20472;-72
2021/10/28 04:20:52;;;;;;;9.82;4.18;;;;;;;;;;5007646;28;20476;-72
2021/10/28 04:28:55;;;;;;;11.55;4.82;;;;;;;;;;5008525;28;20466;-72
2021/10/28 04:31:26;;;;;;;9.93;5.00;;;;;;;;;;5006092;28;20045;-72
2021/10/28 04:33:52;;;;;;;10.68;5.07;;;;;;;;;;5013161;28;20037;-72
2021/10/28 04:36:18;;;;;;;11.85;4.90;;;;;;;;;;5008724;28;20038;-72
2021/10/28 04:38:44;;;;;;;13.43;5.10;;;;;;;;;;4989880;28;20022;-72
2021/10/28 04:41:11;;;;;;;9.60;4.78;;;;;;;;;;5009783;28;20513;-72
2021/10/28 04:43:37;;;;;;;10.07;4.88;;;;;;;;;;5012198;28;20434;-72
2021/10/28 04:46:03;;;;;;;11.40;4.63;;;;;;;;;;5010251;28;20073;-72
2021/10/28 04:48:29;;;;;;;10.43;5.63;;;;;;;;;;5016736;28;20025;-72
2021/10/28 04:50:56;;;;;;;12.30;5.03;;;;;;;;;;5005848;28;20829;-72
2021/10/28 04:53:23;;;;;;;12.25;5.50;;;;;;;;;;5006040;28;20527;-72
2021/10/28 04:55:49;;;;;;;15.60;6.88;;;;;;;;;;5013353;28;20033;-72
2021/10/28 04:58:15;;;;;;;17.23;7.65;;;;;;;;;;5007354;28;20960;-72
2021/10/28 05:00:41;;;;;;;18.10;8.07;;;;;;;;;;5013518;28;20069;-72
2021/10/28 05:03:07;;;;;;;14.43;7.07;;;;;;;;;;5008698;28;20464;-72
2021/10/28 05:05:33;;;;;;;16.77;8.77;;;;;;;;;;5011804;28;20037;-72
2021/10/28 05:07:59;;;;;;;18.38;8.80;;;;;;;;;;5015184;28;20414;-72
2021/10/28 05:10:27;;;;;;;18.33;8.10;;;;;;;;;;5018739;28;20037;-72
2021/10/28 05:12:53;;;;;;;16.63;8.20;;;;;;;;;;5007670;28;20379;-72
2021/10/28 05:15:19;;;;;;;19.00;8.43;;;;;;;;;;5012422;28;20096;-72
2021/10/28 05:17:45;;;;;;;16.08;7.38;;;;;;;;;;5007040;28;20099;-72
2021/10/28 05:20:11;;;;;;;13.43;6.55;;;;;;;;;;5005982;28;20488;-72
2021/10/28 05:22:37;;;;;;;15.52;6.63;;;;;;;;;;5006878;28;20460;-71
2021/10/28 05:25:03;;;;;;;14.90;6.95;;;;;;;;;;5007087;28;20042;-72
2021/10/28 05:27:29;;;;;;;16.17;6.80;;;;;;;;;;5009839;28;20030;-72
2021/10/28 05:29:55;;;;;;;21.52;9.70;;;;;;;;;;5007380;28;20083;-72
2021/10/28 05:32:21;;;;;;;17.48;8.50;;;;;;;;;;5007856;28;20029;-72
2021/10/28 05:34:48;;;;;;;17.63;7.93;;;;;;;;;;5007973;28;20113;-72
2021/10/28 05:37:15;;;;;;;16.75;8.18;;;;;;;;;;5012117;28;20117;-72
2021/10/28 05:39:41;;;;;;;16.27;6.90;;;;;;;;;;5009953;28;20034;-72
2021/10/28 05:42:07;;;;;;;14.43;6.72;;;;;;;;;;5008503;28;20037;-72
2021/10/28 05:44:33;;;;;;;15.82;7.50;;;;;;;;;;5010153;28;20116;-72
2021/10/28 05:46:59;;;;;;;16.50;7.07;;;;;;;;;;5009665;28;20112;-72
2021/10/28 05:49:29;;;;;;;20.27;7.95;;;;;;;;;;5010243;28;20026;-72
2021/10/28 05:51:55;;;;;;;17.25;7.38;;;;;;;;;;5012977;28;20026;-72
2021/10/28 05:54:21;;;;;;;19.75;8.65;;;;;;;;;;5009595;28;20483;-72
2021/10/28 05:56:47;;;;;;;16.17;8.98;;;;;;;;;;5013103;28;20033;-72
2021/10/28 05:59:13;;;;;;;36.38;17.73;;;;;;;;;;5013748;28;20526;-72
2021/10/28 06:01:39;;;;;;;27.83;13.02;;;;;;;;;;5008767;28;20053;-72
2021/10/28 06:04:06;;;;;;;22.83;12.88;;;;;;;;;;5010568;28;20127;-72
2021/10/28 06:06:33;;;;;;;23.08;12.98;;;;;;;;;;5009061;28;20125;-72
2021/10/28 06:08:59;;;;;;;26.45;13.20;;;;;;;;;;5010188;28;20034;-71
2021/10/28 06:11:25;;;;;;;30.30;14.52;;;;;;;;;;5009732;28;20037;-72
2021/10/28 06:13:52;;;;;;;28.60;15.00;;;;;;;;;;5012020;28;20032;-72
2021/10/28 06:16:18;;;;;;;27.17;13.38;;;;;;;;;;5008537;28;20042;-72
2021/10/28 06:18:46;;;;;;;20.88;11.10;;;;;;;;;;5008606;28;20029;-72
2021/10/28 06:21:12;;;;;;;23.58;10.60;;;;;;;;;;5008854;28;20387;-72
2021/10/28 06:23:39;;;;;;;22.70;10.88;;;;;;;;;;5009542;28;20793;-72
2021/10/28 06:26:05;;;;;;;24.35;13.27;;;;;;;;;;5007253;28;20551;-72
2021/10/28 06:28:31;;;;;;;28.38;12.93;;;;;;;;;;5009475;28;20080;-72
2021/10/28 06:30:58;;;;;;;21.92;11.32;;;;;;;;;;5003296;28;20805;-72
2021/10/28 06:33:29;;;;;;;27.25;12.43;;;;;;;;;;5007819;28;20101;-72
2021/10/28 06:35:57;;;;;;;24.95;10.82;;;;;;;;;;5008239;28;20044;-72
2021/10/28 06:38:23;;;;;;;27.23;11.02;;;;;;;;;;5007083;28;20030;-72
2021/10/28 06:40:49;;;;;;;19.60;10.45;;;;;;;;;;5008692;28;20046;-72
2021/10/28 06:43:15;;;;;;;28.35;9.57;;;;;;;;;;5007301;28;20759;-72
2021/10/28 06:45:41;;;;;;;25.50;10.48;;;;;;;;;;5009105;28;20077;-72
2021/10/28 06:48:07;;;;;;;19.65;9.68;;;;;;;;;;5005422;28;20467;-72
2021/10/28 06:50:57;;;;;;;23.00;9.00;;;;;;;;;;5004975;28;20041;-72
2021/10/28 06:53:31;;;;;;;23.00;11.60;;;;;;;;;;5006632;28;20038;-72
2021/10/28 07:04:13;;;;;;;26.67;9.10;;;;;;;;;;5007480;28;20156;-72
2021/10/28 07:06:40;;;;;;;18.52;8.18;;;;;;;;;;5008132;28;20048;-72
2021/10/28 07:09:18;;;;;;;17.98;7.50;;;;;;;;;;5007888;28;20032;-72
2021/10/28 07:11:49;;;;;;;20.52;8.20;;;;;;;;;;5007980;28;20034;-72
2021/10/28 07:14:15;;;;;;;19.75;8.52;;;;;;;;;;5008577;28;20189;-72
2021/10/28 07:17:00;;;;;;;29.10;10.02;;;;;;;;;;5004766;28;20030;-72
2021/10/28 08:29:26;;;;;;;21.73;8.15;;;;;;;;;;5006922;28;20045;-72
2021/10/28 08:31:53;;;;;;;27.58;9.73;;;;;;;;;;5010028;28;20058;-72
2021/10/28 08:34:25;;;;;;;21.08;8.10;;;;;;;;;;5008122;28;20038;-72
2021/10/28 08:36:52;;;;;;;25.50;8.18;;;;;;;;;;5003807;28;20033;-72
2021/10/28 08:39:21;;;;;;;19.02;7.25;;;;;;;;;;5007457;28;20029;-73
2021/10/28 08:41:47;;;;;;;21.63;7.65;;;;;;;;;;5005311;28;20030;-72
2021/10/28 08:44:15;;;;;;;17.45;7.25;;;;;;;;;;5006750;28;20038;-72
2021/10/28 08:46:44;;;;;;;11.27;5.93;;;;;;;;;;5006627;28;20045;-72
2021/10/28 08:49:19;;;;;;;13.40;6.78;;;;;;;;;;5007297;28;20084;-72
2021/10/28 08:59:39;;;;;;;15.52;8.75;;;;;;;;;;5007277;28;20084;-72
2021/10/28 09:24:45;;;;;;;13.25;5.25;;;;;;;;;;5005820;28;20057;-72
2021/10/28 09:27:15;;;;;;;11.82;4.82;;;;;;;;;;5003902;28;20125;-73
2021/10/28 09:29:47;;;;;;;11.18;4.72;;;;;;;;;;4999394;28;20041;-72
2021/10/28 09:51:20;;;;;;;10.45;5.32;;;;;;;;;;5003576;28;20065;-73
2021/10/28 09:59:34;;;;;;;10.73;5.00;;;;;;;;;;5005706;28;20064;-72
2021/10/28 10:02:11;;;;;;;8.98;4.63;;;;;;;;;;5005567;28;20030;-72
2021/10/28 10:04:39;;;;;;;11.50;4.53;;;;;;;;;;5005659;28;20036;-72
2021/10/28 10:07:06;;;;;;;7.95;4.10;;;;;;;;;;5005564;28;20030;-72
2021/10/28 10:09:41;;;;;;;8.98;4.45;;;;;;;;;;5006069;28;20089;-72
2021/10/28 10:12:08;;;;;;;11.10;4.63;;;;;;;;;;4987391;28;20059;-72
2021/10/28 10:14:35;;;;;;;9.85;4.63;;;;;;;;;;5006052;28;20509;-72
2021/10/28 10:17:02;;;;;;;12.15;4.00;;;;;;;;;;5010200;28;20030;-72
2021/10/28 10:19:30;;;;;;;7.80;3.92;;;;;;;;;;5005248;28;20070;-71
2021/10/28 10:21:57;;;;;;;8.88;3.13;;;;;;;;;;5007052;28;20030;-72
2021/10/28 11:21:51;;;;;;;7.45;2.65;;;;;;;;;;5007880;28;20064;-72
2021/10/28 12:50:18;;;;;;;5.53;2.45;;;;;;;;;;5004154;28;20376;-72
2021/10/28 13:53:05;;;;;;;7.38;2.65;;;;;;;;;;5004599;28;20132;-72
2021/10/28 14:18:18;;;;;;;5.97;2.17;;;;;;;;;;4947996;28;20043;-72
2021/10/28 14:20:46;;;;;;;5.07;2.00;;;;;;;;;;5006013;28;20466;-72
2021/10/28 14:38:56;;;;;;;5.35;2.40;;;;;;;;;;5005684;28;20510;-72
2021/10/28 15:36:17;;;;;;;16.30;7.68;;;;;;;;;;4926625;29;20032;-72
2021/10/28 15:41:34;;;;;;;14.20;6.88;;;;;;;;;;5007074;28;20041;-72
2021/10/28 16:22:27;;;;;;;13.35;7.15;;;;;;;;;;4994054;28;20510;-72
2021/10/28 16:24:53;;;;;;;16.17;7.47;;;;;;;;;;5005980;28;20034;-72
2021/10/28 16:27:19;;;;;;;16.02;6.57;;;;;;;;;;5005313;28;20048;-72
2021/10/28 16:29:45;;;;;;;16.52;6.68;;;;;;;;;;5006905;28;20036;-72
2021/10/28 16:32:13;;;;;;;19.52;7.95;;;;;;;;;;4988426;28;20034;-72
2021/10/28 16:34:40;;;;;;;22.95;12.70;;;;;;;;;;5006572;28;20641;-72
2021/10/28 16:37:06;;;;;;;26.70;15.45;;;;;;;;;;5006862;28;20065;-72
2021/10/28 16:39:33;;;;;;;30.17;13.93;;;;;;;;;;5005387;28;20030;-72
2021/10/28 16:41:59;;;;;;;22.83;13.68;;;;;;;;;;5007206;28;20044;-72
2021/10/28 16:44:25;;;;;;;31.40;13.80;;;;;;;;;;5005220;28;20046;-72
2021/10/28 16:46:52;;;;;;;34.75;20.85;;;;;;;;;;5008842;28;20112;-72
2021/10/28 16:49:18;;;;;;;28.52;17.50;;;;;;;;;;5005344;28;20041;-72
2021/10/28 16:51:45;;;;;;;25.83;13.90;;;;;;;;;;5006308;28;20048;-72
2021/10/28 16:54:11;;;;;;;25.35;15.85;;;;;;;;;;5007070;28;20018;-72
2021/10/28 16:56:37;;;;;;;28.85;14.57;;;;;;;;;;5006939;28;20062;-72
2021/10/28 16:59:03;;;;;;;21.33;12.95;;;;;;;;;;5005624;28;20044;-72
2021/10/28 17:01:29;;;;;;;23.08;13.45;;;;;;;;;;5006131;28;20056;-72
2021/10/28 17:03:55;;;;;;;36.13;19.88;;;;;;;;;;5006418;28;20862;-72
2021/10/28 17:06:22;;;;;;;30.95;15.85;;;;;;;;;;5006340;28;20061;-72
2021/10/28 17:08:48;;;;;;;31.55;18.27;;;;;;;;;;5006555;28;20042;-72
2021/10/28 17:11:15;;;;;;;57.28;34.25;;;;;;;;;;5000824;28;20132;-72
2021/10/28 17:13:42;;;;;;;41.25;25.85;;;;;;;;;;4998336;28;20109;-72
2021/10/28 17:16:08;;;;;;;48.03;31.75;;;;;;;;;;5005065;28;20026;-73
2021/10/28 17:18:34;;;;;;;39.58;25.65;;;;;;;;;;5006160;28;20033;-72
2021/10/28 17:21:04;;;;;;;35.92;21.65;;;;;;;;;;5005800;28;20045;-72
2021/10/28 17:23:37;;;;;;;26.40;18.27;;;;;;;;;;5002306;28;20864;-73
2021/10/28 17:26:04;;;;;;;22.50;14.90;;;;;;;;;;5002395;28;20129;-73
2021/10/28 17:28:30;;;;;;;26.00;16.65;;;;;;;;;;5005383;28;20443;-73
2021/10/28 17:30:57;;;;;;;21.08;14.50;;;;;;;;;;5007096;28;20038;-72
2021/10/28 17:33:23;;;;;;;21.52;13.82;;;;;;;;;;5009648;28;20030;-72
2021/10/28 17:35:49;;;;;;;21.45;12.95;;;;;;;;;;5006661;28;20121;-72
2021/10/28 17:38:15;;;;;;;23.67;15.27;;;;;;;;;;5010015;28;20112;-72
2021/10/28 17:40:41;;;;;;;19.92;13.27;;;;;;;;;;5009346;28;20216;-72
2021/10/28 17:43:11;;;;;;;21.70;14.65;;;;;;;;;;5009936;28;20732;-72
2021/10/28 17:45:38;;;;;;;25.83;16.25;;;;;;;;;;5006470;28;20035;-72
2021/10/28 17:48:04;;;;;;;22.58;15.60;;;;;;;;;;5006609;28;20042;-72
2021/10/28 17:50:30;;;;;;;21.80;15.02;;;;;;;;;;5008335;28;20101;-72
2021/10/28 17:52:56;;;;;;;27.30;16.17;;;;;;;;;;5008466;28;20394;-72
2021/10/28 17:55:23;;;;;;;22.67;13.93;;;;;;;;;;5007970;28;20038;-72
2021/10/28 17:57:50;;;;;;;22.75;15.27;;;;;;;;;;5009679;28;20053;-72
2021/10/28 18:00:17;;;;;;;27.70;17.10;;;;;;;;;;5008730;28;20022;-72
2021/10/28 18:02:43;;;;;;;34.58;20.60;;;;;;;;;;5009829;28;20037;-72
2021/10/28 18:05:09;;;;;;;28.38;17.73;;;;;;;;;;5008716;28;20469;-72
2021/10/28 18:07:36;;;;;;;28.50;17.08;;;;;;;;;;5009255;28;20040;-72
2021/10/28 18:10:02;;;;;;;30.73;17.73;;;;;;;;;;5009510;28;20145;-71
2021/10/28 18:12:28;;;;;;;28.35;17.65;;;;;;;;;;5009485;28;20111;-72
2021/10/28 18:14:55;;;;;;;27.20;18.30;;;;;;;;;;5007622;28;20029;-72
2021/10/28 18:17:21;;;;;;;28.95;18.85;;;;;;;;;;5009342;28;20479;-72
2021/10/28 18:19:47;;;;;;;28.75;18.67;;;;;;;;;;5009307;28;20117;-73
2021/10/28 18:22:14;;;;;;;30.27;18.75;;;;;;;;;;5009125;28;20095;-72
2021/10/28 18:24:40;;;;;;;28.90;19.10;;;;;;;;;;5006504;28;20496;-72
2021/10/28 18:27:08;;;;;;;22.70;16.70;;;;;;;;;;5008828;28;20035;-72
2021/10/28 18:29:35;;;;;;;30.80;18.10;;;;;;;;;;5004233;28;20576;-72
2021/10/28 18:32:01;;;;;;;21.40;14.55;;;;;;;;;;5006967;28;20041;-72
2021/10/28 18:34:27;;;;;;;27.33;15.75;;;;;;;;;;5009012;28;20033;-72
2021/10/28 18:36:53;;;;;;;28.23;15.98;;;;;;;;;;5008617;28;20030;-72
2021/10/28 18:39:20;;;;;;;24.75;15.55;;;;;;;;;;5008317;28;20069;-72
2021/10/28 18:41:47;;;;;;;25.95;14.70;;;;;;;;;;5004619;28;20052;-72
2021/10/28 18:44:13;;;;;;;21.05;12.00;;;;;;;;;;4996728;28;20030;-72
2021/10/28 18:46:39;;;;;;;21.48;12.20;;;;;;;;;;5008794;28;20048;-72
2021/10/28 18:49:07;;;;;;;26.38;15.25;;;;;;;;;;5008862;28;20064;-72
2021/10/28 18:51:34;;;;;;;23.15;13.65;;;;;;;;;;5007691;28;20360;-72
2021/10/28 18:54:00;;;;;;;22.00;15.05;;;;;;;;;;5007702;28;20093;-72
2021/10/28 18:56:26;;;;;;;25.02;16.42;;;;;;;;;;5008140;28;20060;-73
2021/10/28 18:58:53;;;;;;;24.75;15.95;;;;;;;;;;5006499;28;20037;-72
2021/10/28 19:01:19;;;;;;;28.17;17.77;;;;;;;;;;5008291;28;20538;-72
2021/10/28 19:03:46;;;;;;;30.60;18.63;;;;;;;;;;5008015;28;20029;-72
2021/10/28 19:06:12;;;;;;;26.50;16.30;;;;;;;;;;5007907;28;20061;-72
2021/10/28 19:08:40;;;;;;;24.88;14.75;;;;;;;;;;5005287;28;20038;-72
2021/10/28 19:11:07;;;;;;;29.65;17.40;;;;;;;;;;5007412;28;20060;-72
2021/10/28 19:13:34;;;;;;;30.52;19.02;;;;;;;;;;5007603;28;20667;-72
2021/10/28 19:16:00;;;;;;;35.60;20.67;;;;;;;;;;5006501;28;20026;-71
2021/10/28 19:18:26;;;;;;;27.00;18.52;;;;;;;;;;5007795;28;20521;-72
2021/10/28 19:20:52;;;;;;;24.77;16.80;;;;;;;;;;5006986;28;20495;-72
2021/10/28 19:23:19;;;;;;;26.98;17.45;;;;;;;;;;5007681;28;20047;-72
2021/10/28 19:25:45;;;;;;;25.55;16.58;;;;;;;;;;5007655;28;21433;-72
2021/10/28 19:28:11;;;;;;;25.05;15.77;;;;;;;;;;5007665;28;20030;-72
2021/10/28 19:31:13;;;;;;;27.90;16.98;;;;;;;;;;5005867;28;20050;-72
2021/10/28 19:33:44;;;;;;;29.50;18.42;;;;;;;;;;5000212;28;20491;-73
2021/10/28 19:36:15;;;;;;;37.58;20.75;;;;;;;;;;5005197;28;20037;-72
2021/10/28 19:46:46;;;;;;;44.00;22.85;;;;;;;;;;5007302;28;20052;-71
2021/10/28 19:49:14;;;;;;;40.33;21.42;;;;;;;;;;5008547;28;20034;-71
2021/10/28 19:51:41;;;;;;;39.05;23.65;;;;;;;;;;5002853;28;20030;-72
2021/10/28 19:54:11;;;;;;;53.45;26.17;;;;;;;;;;5003974;28;20096;-71
2021/10/28 19:56:37;;;;;;;51.45;25.13;;;;;;;;;;5007182;28;20025;-72
2021/10/28 19:59:05;;;;;;;49.70;27.75;;;;;;;;;;5002018;28;20049;-71
2021/10/28 20:01:40;;;;;;;46.63;26.40;;;;;;;;;;4997333;28;20403;-72
2021/10/28 20:20:20;;;;;;;42.10;25.38;;;;;;;;;;5005332;28;20076;-71
2021/10/28 20:22:47;;;;;;;37.53;23.83;;;;;;;;;;5006056;28;20152;-71
2021/10/28 20:25:15;;;;;;;40.13;23.55;;;;;;;;;;5006051;28;20030;-71
2021/10/28 20:27:42;;;;;;;37.20;22.25;;;;;;;;;;5004470;28;20041;-72
2021/10/28 20:30:12;;;;;;;63.08;33.03;;;;;;;;;;5002788;28;20805;-71
2021/10/28 20:32:38;;;;;;;57.08;32.97;;;;;;;;;;5004678;28;20061;-72
2021/10/28 20:35:10;;;;;;;52.45;31.83;;;;;;;;;;5007238;28;20067;-71
2021/10/28 20:37:37;;;;;;;48.50;29.70;;;;;;;;;;5002489;28;20026;-72
2021/10/28 20:40:04;;;;;;;43.47;26.50;;;;;;;;;;5003603;28;20045;-71
2021/10/28 20:42:36;;;;;;;39.40;22.83;;;;;;;;;;5005585;28;20041;-71
2021/10/28 20:45:06;;;;;;;37.35;21.92;;;;;;;;;;5005643;28;20061;-72
2021/10/28 20:47:32;;;;;;;41.80;22.45;;;;;;;;;;5003554;28;20060;-72
2021/10/28 20:49:59;;;;;;;36.25;21.33;;;;;;;;;;5004653;28;20037;-72
2021/10/28 20:52:25;;;;;;;31.60;17.25;;;;;;;;;;5003809;28;20030;-71
2021/10/28 20:54:51;;;;;;;28.80;15.43;;;;;;;;;;5006576;28;20034;-72
2021/10/28 20:57:18;;;;;;;24.90;14.57;;;;;;;;;;5005451;28;20037;-71
2021/10/28 20:59:44;;;;;;;28.75;17.40;;;;;;;;;;5005625;28;20125;-71
2021/10/28 21:02:11;;;;;;;37.40;23.35;;;;;;;;;;5005745;28;20092;-71
2021/10/28 21:04:37;;;;;;;32.05;18.85;;;;;;;;;;5007127;28;20030;-72
2021/10/28 21:07:03;;;;;;;28.58;18.10;;;;;;;;;;4999068;28;20076;-71
2021/10/28 21:09:29;;;;;;;24.52;14.52;;;;;;;;;;5005458;28;20037;-72
2021/10/28 21:11:55;;;;;;;27.00;15.55;;;;;;;;;;5003616;28;20041;-71
2021/10/28 21:14:21;;;;;;;23.58;12.95;;;;;;;;;;5005573;28;20041;-71
2021/10/28 21:16:47;;;;;;;21.17;11.95;;;;;;;;;;5006528;28;20052;-71
2021/10/28 21:19:13;;;;;;;21.35;12.30;;;;;;;;;;5008033;28;20117;-71
2021/10/28 21:21:40;;;;;;;23.63;14.43;;;;;;;;;;5006084;28;20042;-71
2021/10/28 21:24:07;;;;;;;22.90;14.25;;;;;;;;;;5005243;28;20479;-71
2021/10/28 21:26:34;;;;;;;22.80;13.60;;;;;;;;;;5005922;28;20042;-72
2021/10/28 21:29:00;;;;;;;18.42;11.27;;;;;;;;;;5007723;28;20025;-71
2021/10/28 21:31:27;;;;;;;16.08;9.02;;;;;;;;;;5007032;28;20081;-71
2021/10/28 21:33:53;;;;;;;14.38;9.15;;;;;;;;;;5004455;28;20372;-72
2021/10/28 21:36:19;;;;;;;20.67;9.85;;;;;;;;;;5004624;28;20030;-71
2021/10/28 21:38:45;;;;;;;16.85;10.10;;;;;;;;;;5006214;28;20022;-71
2021/10/28 21:41:11;;;;;;;15.27;8.88;;;;;;;;;;5007456;28;20091;-71
2021/10/28 21:43:37;;;;;;;20.58;10.25;;;;;;;;;;5006672;28;20655;-71
2021/10/28 21:46:03;;;;;;;19.58;9.55;;;;;;;;;;5005832;28;20726;-71
2021/10/28 21:48:29;;;;;;;20.23;11.60;;;;;;;;;;5005760;28;20021;-71
2021/10/28 21:51:04;;;;;;;18.88;12.00;;;;;;;;;;5005372;28;20049;-71
2021/10/28 21:53:35;;;;;;;17.95;11.18;;;;;;;;;;5002650;28;20018;-72
2021/10/28 22:01:20;;;;;;;19.30;11.55;;;;;;;;;;5006902;28;20048;-71
2021/10/28 22:04:16;;;;;;;24.92;12.65;;;;;;;;;;5005004;28;20022;-72
2021/10/28 22:07:01;;;;;;;23.33;14.23;;;;;;;;;;5007149;28;20045;-71
2021/10/28 22:25:45;;;;;;;30.92;17.55;;;;;;;;;;5011303;28;20451;-71
2021/10/28 22:28:12;;;;;;;36.28;20.83;;;;;;;;;;5012609;28;20037;-71
2021/10/28 22:30:38;;;;;;;29.15;17.88;;;;;;;;;;5009935;28;20034;-71
2021/10/28 22:33:04;;;;;;;31.13;18.58;;;;;;;;;;5010879;28;20470;-71
2021/10/28 22:35:35;;;;;;;28.15;19.08;;;;;;;;;;5008942;28;20037;-71
2021/10/28 22:38:03;;;;;;;35.58;23.20;;;;;;;;;;5009255;28;20076;-71
2021/10/28 22:40:34;;;;;;;34.20;22.90;;;;;;;;;;5016056;28;20061;-71
2021/10/28 22:43:02;;;;;;;40.17;25.63;;;;;;;;;;5009046;28;20037;-71
2021/10/28 22:45:29;;;;;;;33.65;22.67;;;;;;;;;;5013973;28;20061;-71
2021/10/28 22:47:55;;;;;;;28.75;20.10;;;;;;;;;;5009275;28;20052;-71
2021/10/28 22:50:21;;;;;;;27.90;19.38;;;;;;;;;;5011021;28;20499;-71
2021/10/28 22:52:48;;;;;;;47.65;27.90;;;;;;;;;;5009231;28;20034;-71
2021/10/28 22:55:15;;;;;;;81.53;33.90;;;;;;;;;;5010599;28;20664;-71
2021/10/28 22:57:49;;;;;;;62.03;37.08;;;;;;;;;;5009064;28;20052;-71
2021/10/28 23:00:34;;;;;;;85.53;44.78;;;;;;;;;;5007774;28;20510;-71
2021/10/28 23:05:56;;;;;;;91.07;33.70;;;;;;;;;;5011288;28;20616;-71
2021/10/28 23:21:24;;;;;;;190.55;79.53;;;;;;;;;;5008235;28;20061;-71
2021/10/28 23:23:50;;;;;;;129.52;57.53;;;;;;;;;;5014550;28;20032;-71
2021/10/28 23:26:16;;;;;;;54.63;30.98;;;;;;;;;;5008344;28;20045;-71
2021/10/28 23:28:41;;;;;;;45.25;25.85;;;;;;;;;;5012031;28;20375;-71
2021/10/28 23:31:07;;;;;;;37.97;23.73;;;;;;;;;;5008740;28;20111;-71
2021/10/28 23:33:34;;;;;;;39.67;25.40;;;;;;;;;;5010604;28;20395;-71
2021/10/28 23:36:00;;;;;;;33.90;21.88;;;;;;;;;;5008425;28;20034;-71
2021/10/28 23:38:27;;;;;;;40.33;26.40;;;;;;;;;;5009210;28;20028;-71
2021/10/28 23:40:53;;;;;;;37.28;24.33;;;;;;;;;;5014599;28;20042;-71
2021/10/28 23:43:19;;;;;;;40.30;26.73;;;;;;;;;;5007509;28;20478;-71
2021/10/28 23:45:45;;;;;;;29.58;19.33;;;;;;;;;;5013132;28;20045;-71
2021/10/28 23:48:11;;;;;;;37.65;25.60;;;;;;;;;;5008204;28;20049;-71
2021/10/28 23:50:37;;;;;;;94.90;52.80;;;;;;;;;;5006976;28;20089;-71
2021/10/28 23:53:03;;;;;;;169.90;93.43;;;;;;;;;;5008380;28;20105;-71
2021/10/28 23:55:29;;;;;;;88.25;51.88;;;;;;;;;;5009341;28;20409;-71
2021/10/28 23:57:55;;;;;;;57.13;34.05;;;;;;;;;;5008003;28;20067;-71
